Observation data for Hereford on 11/17/2019      Previous  Date       Current Mesonet Observations  Soil Data  Daily Summary Page  Observations in Plain Language
KHES 170600Z 00008KT 07/00 A2999 RMK A01 T00670004  RH  065%=      5-min Rain = 0
KHES 170605Z 00007KT 07/00 A2999 RMK A01 T00680004  RH  064%=      5-min Rain = 0
KHES 170610Z 36009KT 07/01 A30 RMK A01 T00700005  RH  064%=      5-min Rain = 0
KHES 170615Z 00008KT 07/01 A30 RMK A01 T00740005  RH  063%=      5-min Rain = 0
KHES 170620Z 36008KT 08/01 A30 RMK A01 T00760006  RH  062%=      5-min Rain = 0
KHES 170625Z 01009KT 08/01 A30 RMK A01 T00810006  RH  060%=      5-min Rain = 0
KHES 170630Z 01010KT 09/01 A30 RMK A01 T00850007  RH  059%=      5-min Rain = 0
KHES 170635Z 00012KT 09/01 A30 RMK A01 T00900007  RH  056%=      5-min Rain = 0
KHES 170640Z 00014KT 10/00 A30 RMK A01 T00970004  RH  053%=      5-min Rain = 0
KHES 170645Z 00014KT 10/00 A3001 RMK A01 T00990000  RH  051%=      5-min Rain = 0
KHES 170650Z 00015G21KT 10/M01 A3001 RMK A01 T01021006  RH  048%=      5-min Rain = 0
KHES 170655Z 01018G24KT 10/M01 A3001 RMK A01 T01031012  RH  045%=      5-min Rain = 0
KHES 170700Z 01018G25KT 11/M02 A3002 RMK A01 T01051017  RH  043%=      5-min Rain = 0
KHES 170705Z 01017KT 10/M02 A3002 RMK A01 T01031018  RH  043%=      5-min Rain = 0
KHES 170710Z 01016G21KT 10/M02 A3003 RMK A01 T01011020  RH  043%=      5-min Rain = 0
KHES 170715Z 01015KT 10/M02 A3003 RMK A01 T00991021  RH  043%=      5-min Rain = 0
KHES 170720Z 01016G22KT 10/M02 A3003 RMK A01 T00991022  RH  043%=      5-min Rain = 0
KHES 170725Z 01016KT 10/M02 A3003 RMK A01 T01001023  RH  042%=      5-min Rain = 0
KHES 170730Z 01016KT 10/M02 A3004 RMK A01 T01011023  RH  042%=      5-min Rain = 0
KHES 170735Z 01016G21KT 10/M02 A3004 RMK A01 T01021024  RH  042%=      5-min Rain = 0
KHES 170740Z 01017G23KT 10/M02 A3005 RMK A01 T01021024  RH  042%=      5-min Rain = 0
KHES 170745Z 01022G29KT 10/M03 A3005 RMK A01 T01041025  RH  041%=      5-min Rain = 0
KHES 170750Z 01018G25KT 10/M03 A3005 RMK A01 T01031025  RH  041%=      5-min Rain = 0
KHES 170755Z 01019G26KT 10/M02 A3005 RMK A01 T01001024  RH  042%=      5-min Rain = 0
KHES 170800Z 01019G29KT 10/M02 A3005 RMK A01 T01001024  RH  042%=      5-min Rain = 0
KHES 170805Z 01017G23KT 10/M02 A3006 RMK A01 T00961023  RH  043%=      5-min Rain = 0
KHES 170810Z 01018G25KT 10/M02 A3006 RMK A01 T00951023  RH  044%=      5-min Rain = 0
KHES 170815Z 01018G23KT 09/M02 A3006 RMK A01 T00931022  RH  045%=      5-min Rain = 0
KHES 170820Z 00017KT 09/M02 A3007 RMK A01 T00891021  RH  046%=      5-min Rain = 0
KHES 170825Z 01017G23KT 09/M02 A3007 RMK A01 T00861021  RH  047%=      5-min Rain = 0
KHES 170830Z 01019KT 09/M02 A3007 RMK A01 T00851019  RH  048%=      5-min Rain = 0
KHES 170835Z 01019G27KT 08/M02 A3008 RMK A01 T00831017  RH  050%=      5-min Rain = 0
KHES 170840Z 01020G28KT 08/M02 A3008 RMK A01 T00811015  RH  051%=      5-min Rain = 0
KHES 170845Z 01021G29KT 08/M01 A3008 RMK A01 T00801013  RH  053%=      5-min Rain = 0
KHES 170850Z 01019G27KT 08/M01 A3008 RMK A01 T00771012  RH  054%=      5-min Rain = 0
KHES 170855Z 01019G24KT 08/M01 A3008 RMK A01 T00751012  RH  055%=      5-min Rain = 0
KHES 170900Z 01019KT 07/M01 A3008 RMK A01 T00731012  RH  055%=      5-min Rain = 0
KHES 170905Z 01018G25KT 07/M01 A3008 RMK A01 T00721011  RH  056%=      5-min Rain = 0
KHES 170910Z 01017G22KT 07/M01 A3008 RMK A01 T00701011  RH  057%=      5-min Rain = 0
KHES 170915Z 01016G22KT 07/M01 A3008 RMK A01 T00681011  RH  058%=      5-min Rain = 0
KHES 170920Z 01017KT 07/M01 A3009 RMK A01 T00661010  RH  059%=      5-min Rain = 0
KHES 170925Z 01017G24KT 07/M01 A3009 RMK A01 T00651010  RH  059%=      5-min Rain = 0
KHES 170930Z 01018G23KT 06/M01 A3009 RMK A01 T00641010  RH  060%=      5-min Rain = 0
KHES 170935Z 01018KT 06/M01 A3009 RMK A01 T00641010  RH  060%=      5-min Rain = 0
KHES 170940Z 01017G22KT 06/M01 A3009 RMK A01 T00621010  RH  061%=      5-min Rain = 0
KHES 170945Z 01018KT 06/M01 A3009 RMK A01 T00611010  RH  061%=      5-min Rain = 0
KHES 170950Z 01017G22KT 06/M01 A301 RMK A01 T00601010  RH  061%=      5-min Rain = 0
KHES 170955Z 01016KT 06/M01 A301 RMK A01 T00591009  RH  062%=      5-min Rain = 0
KHES 171000Z 01016G21KT 06/M01 A301 RMK A01 T00581009  RH  063%=      5-min Rain = 0
KHES 171005Z 01017G22KT 06/M01 A301 RMK A01 T00581008  RH  063%=      5-min Rain = 0
KHES 171010Z 01017G24KT 06/M01 A301 RMK A01 T00581008  RH  064%=      5-min Rain = 0
KHES 171015Z 01015G20KT 06/M01 A301 RMK A01 T00561008  RH  064%=      5-min Rain = 0
KHES 171020Z 01016G21KT 06/M01 A3011 RMK A01 T00551007  RH  065%=      5-min Rain = 0
KHES 171025Z 01014KT 05/M01 A3011 RMK A01 T00531007  RH  066%=      5-min Rain = 0
KHES 171030Z 01015KT 05/M01 A3011 RMK A01 T00521007  RH  066%=      5-min Rain = 0
KHES 171035Z 01014G19KT 05/M01 A3011 RMK A01 T00511007  RH  067%=      5-min Rain = 0
KHES 171040Z 01014G20KT 05/M01 A3011 RMK A01 T00511006  RH  067%=      5-min Rain = 0
KHES 171045Z 01014KT 05/M01 A3012 RMK A01 T00501006  RH  068%=      5-min Rain = 0
KHES 171050Z 01013KT 05/M01 A3012 RMK A01 T00491006  RH  068%=      5-min Rain = 0
KHES 171055Z 01013G18KT 05/M01 A3012 RMK A01 T00471006  RH  069%=      5-min Rain = 0
KHES 171100Z 01012KT 05/M01 A3013 RMK A01 T00461007  RH  069%=      5-min Rain = 0
KHES 171105Z 01012KT 04/M01 A3013 RMK A01 T00441007  RH  070%=      5-min Rain = 0
KHES 171110Z 01012KT 04/M01 A3013 RMK A01 T00431007  RH  071%=      5-min Rain = 0
KHES 171115Z 00013KT 04/M01 A3014 RMK A01 T00431007  RH  071%=      5-min Rain = 0
KHES 171120Z 00012G17KT 04/M01 A3014 RMK A01 T00431007  RH  071%=      5-min Rain = 0
KHES 171125Z 00013KT 04/M01 A3014 RMK A01 T00431007  RH  071%=      5-min Rain = 0
KHES 171130Z 00014KT 04/M01 A3014 RMK A01 T00431006  RH  071%=      5-min Rain = 0
KHES 171135Z 01014G20KT 05/M01 A3015 RMK A01 T00451005  RH  071%=      5-min Rain = 0
KHES 171140Z 01011KT 04/M01 A3015 RMK A01 T00421006  RH  072%=      5-min Rain = 0
KHES 171145Z 01013G21KT 04/M01 A3015 RMK A01 T00411005  RH  073%=      5-min Rain = 0
KHES 171150Z 01015KT 05/M00 A3015 RMK A01 T00451003  RH  072%=      5-min Rain = 0
KHES 171155Z 01014KT 04/M00 A3016 RMK A01 T00441002  RH  073%=      5-min Rain = 0
KHES 171200Z 01013KT 04/M00 A3016 RMK A01 T00431002  RH  074%=      5-min Rain = 0
KHES 171205Z 01012KT 04/M00 A3016 RMK A01 T00431001  RH  074%=      5-min Rain = 0
KHES 171210Z 00012KT 04/M00 A3016 RMK A01 T00411002  RH  075%=      5-min Rain = 0
KHES 171215Z 00012KT 04/M00 A3017 RMK A01 T00411001  RH  075%=      5-min Rain = 0
KHES 171220Z 00011G16KT 04/M00 A3017 RMK A01 T00391001  RH  076%=      5-min Rain = 0
KHES 171225Z 00012KT 04/00 A3017 RMK A01 T00390000  RH  077%=      5-min Rain = 0
KHES 171230Z 00011KT 04/00 A3018 RMK A01 T00390001  RH  077%=      5-min Rain = 0
KHES 171235Z 01013KT 04/00 A3018 RMK A01 T00380003  RH  079%=      5-min Rain = 0
KHES 171240Z 01013KT 04/01 A3018 RMK A01 T00400005  RH  079%=      5-min Rain = 0
KHES 171245Z 01012KT 04/01 A3018 RMK A01 T00400006  RH  079%=      5-min Rain = 0
KHES 171250Z 01011G16KT 04/01 A3018 RMK A01 T00380006  RH  080%=      5-min Rain = 0
KHES 171255Z 01012KT 04/01 A3019 RMK A01 T00380006  RH  080%=      5-min Rain = 0
KHES 171300Z 01012KT 04/01 A3019 RMK A01 T00380006  RH  081%=      5-min Rain = 0
KHES 171305Z 01012KT 04/01 A3019 RMK A01 T00380006  RH  081%=      5-min Rain = 0
KHES 171310Z 01011KT 04/01 A3019 RMK A01 T00370006  RH  081%=      5-min Rain = 0
KHES 171315Z 01012KT 04/01 A302 RMK A01 T00360005  RH  081%=      5-min Rain = 0
KHES 171320Z 01011KT 04/01 A302 RMK A01 T00350005  RH  082%=      5-min Rain = 0
KHES 171325Z 01011KT 03/01 A302 RMK A01 T00340005  RH  082%=      5-min Rain = 0
KHES 171330Z 01011KT 03/01 A302 RMK A01 T00340005  RH  082%=      5-min Rain = 0
KHES 171335Z 00011KT 03/01 A302 RMK A01 T00330005  RH  083%=      5-min Rain = 0
KHES 171340Z 00011KT 03/01 A302 RMK A01 T00340005  RH  083%=      5-min Rain = 0
KHES 171345Z 00011KT 03/01 A302 RMK A01 T00340005  RH  083%=      5-min Rain = 0
KHES 171350Z 00011KT 04/01 A302 RMK A01 T00350006  RH  083%=      5-min Rain = 0
KHES 171355Z 36011KT 04/01 A302 RMK A01 T00360007  RH  082%=      5-min Rain = 0
KHES 171400Z 00010KT 04/01 A302 RMK A01 T00370007  RH  082%=      5-min Rain = 0
KHES 171405Z 01010KT 04/01 A302 RMK A01 T00380008  RH  082%=      5-min Rain = 0
KHES 171410Z 01011KT 04/01 A302 RMK A01 T00400010  RH  082%=      5-min Rain = 0
KHES 171415Z 01010KT 04/01 A3021 RMK A01 T00420011  RH  081%=      5-min Rain = 0
KHES 171420Z 01010KT 04/01 A3021 RMK A01 T00440012  RH  081%=      5-min Rain = 0
KHES 171425Z 01010KT 05/01 A3021 RMK A01 T00460013  RH  080%=      5-min Rain = 0
KHES 171430Z 01010KT 05/01 A3021 RMK A01 T00480014  RH  080%=      5-min Rain = 0
KHES 171435Z 01010KT 05/01 A3021 RMK A01 T00500014  RH  079%=      5-min Rain = 0
KHES 171440Z 00011KT 05/02 A3021 RMK A01 T00510015  RH  078%=      5-min Rain = 0
KHES 171445Z 36011KT 05/02 A3021 RMK A01 T00530015  RH  078%=      5-min Rain = 0
KHES 171450Z 35011KT 05/02 A3022 RMK A01 T00540015  RH  077%=      5-min Rain = 0
KHES 171455Z 36010KT 06/02 A3022 RMK A01 T00580017  RH  076%=      5-min Rain = 0
KHES 171500Z 01011G16KT 06/02 A3022 RMK A01 T00610018  RH  075%=      5-min Rain = 0
KHES 171505Z 01013G18KT 07/02 A3022 RMK A01 T00650018  RH  073%=      5-min Rain = 0
KHES 171510Z 01015KT 06/02 A3022 RMK A01 T00640016  RH  073%=      5-min Rain = 0
KHES 171515Z 01015KT 07/02 A3022 RMK A01 T00650017  RH  072%=      5-min Rain = 0
KHES 171520Z 01016KT 07/02 A3022 RMK A01 T00660016  RH  071%=      5-min Rain = 0
KHES 171525Z 02015G20KT 07/02 A3022 RMK A01 T00690017  RH  071%=      5-min Rain = 0
KHES 171530Z 01016G21KT 07/02 A3022 RMK A01 T00710016  RH  069%=      5-min Rain = 0
KHES 171535Z 02017KT 07/02 A3022 RMK A01 T00710015  RH  069%=      5-min Rain = 0
KHES 171540Z 01015KT 07/02 A3022 RMK A01 T00740016  RH  068%=      5-min Rain = 0
KHES 171545Z 01015KT 08/02 A3022 RMK A01 T00760016  RH  067%=      5-min Rain = 0
KHES 171550Z 02014G19KT 08/02 A3022 RMK A01 T00770015  RH  066%=      5-min Rain = 0
KHES 171555Z 02014G19KT 08/02 A3022 RMK A01 T00790015  RH  065%=      5-min Rain = 0
KHES 171600Z 02013G19KT 08/02 A3022 RMK A01 T00820016  RH  064%=      5-min Rain = 0
KHES 171605Z 03013KT 08/02 A3022 RMK A01 T00820015  RH  064%=      5-min Rain = 0
KHES 171610Z 03013KT 08/01 A3022 RMK A01 T00820014  RH  063%=      5-min Rain = 0
KHES 171615Z 03012KT 08/02 A3022 RMK A01 T00830015  RH  063%=      5-min Rain = 0
KHES 171620Z 03012KT 09/02 A3022 RMK A01 T00860017  RH  063%=      5-min Rain = 0
KHES 171625Z 02011KT 09/02 A3022 RMK A01 T00900018  RH  062%=      5-min Rain = 0
KHES 171630Z 02012KT 09/02 A3022 RMK A01 T00880017  RH  062%=      5-min Rain = 0
KHES 171635Z 02012KT 09/02 A3022 RMK A01 T00890017  RH  061%=      5-min Rain = 0
KHES 171640Z 02012KT 09/02 A3021 RMK A01 T00910018  RH  061%=      5-min Rain = 0
KHES 171645Z 02011KT 09/02 A3021 RMK A01 T00900017  RH  061%=      5-min Rain = 0
KHES 171650Z 03010KT 09/02 A3021 RMK A01 T00920018  RH  061%=      5-min Rain = 0
KHES 171655Z 04011G16KT 09/02 A3021 RMK A01 T00940017  RH  060%=      5-min Rain = 0
KHES 171700Z 03011G16KT 10/02 A3021 RMK A01 T00960019  RH  060%=      5-min Rain = 0
KHES 171705Z 03011KT 09/02 A3021 RMK A01 T00940019  RH  060%=      5-min Rain = 0
KHES 171710Z 03010KT 10/02 A3021 RMK A01 T00950017  RH  059%=      5-min Rain = 0
KHES 171715Z 02009G14KT 10/02 A3021 RMK A01 T00990021  RH  059%=      5-min Rain = 0
KHES 171720Z 02010KT 10/02 A302 RMK A01 T00990020  RH  059%=      5-min Rain = 0
KHES 171725Z 01009KT 10/02 A302 RMK A01 T01010021  RH  058%=      5-min Rain = 0
KHES 171730Z 02009KT 10/02 A302 RMK A01 T01000020  RH  058%=      5-min Rain = 0
KHES 171735Z 01009G14KT 10/02 A3021 RMK A01 T01020022  RH  058%=      5-min Rain = 0
KHES 171740Z 01009KT 11/02 A302 RMK A01 T01050021  RH  057%=      5-min Rain = 0
KHES 171745Z 02009KT 10/02 A302 RMK A01 T01030020  RH  058%=      5-min Rain = 0
KHES 171750Z 02009G15KT 11/02 A302 RMK A01 T01070022  RH  056%=      5-min Rain = 0
KHES 171755Z 01009KT 10/02 A302 RMK A01 T01040021  RH  057%=      5-min Rain = 0
KHES 171800Z 01010G16KT 11/02 A302 RMK A01 T01090022  RH  056%=      5-min Rain = 0
KHES 171805Z 01011KT 11/02 A302 RMK A01 T01080022  RH  056%=      5-min Rain = 0
KHES 171810Z 01009KT 11/02 A302 RMK A01 T01110022  RH  055%=      5-min Rain = 0
KHES 171815Z 03010KT 11/02 A302 RMK A01 T01090020  RH  055%=      5-min Rain = 0
KHES 171820Z 02011KT 11/02 A302 RMK A01 T01110021  RH  055%=      5-min Rain = 0
KHES 171825Z 02009KT 11/02 A302 RMK A01 T01120021  RH  055%=      5-min Rain = 0
KHES 171830Z 02011G17KT 12/02 A302 RMK A01 T01150022  RH  054%=      5-min Rain = 0
KHES 171835Z 00010KT 11/02 A302 RMK A01 T01130020  RH  053%=      5-min Rain = 0
KHES 171840Z 01008KT 12/02 A302 RMK A01 T01190024  RH  053%=      5-min Rain = 0
KHES 171845Z 04008KT 12/02 A3019 RMK A01 T01190022  RH  052%=      5-min Rain = 0
KHES 171850Z 02008KT 12/02 A3018 RMK A01 T01190021  RH  052%=      5-min Rain = 0
KHES 171855Z 01009KT 12/02 A3018 RMK A01 T01180019  RH  052%=      5-min Rain = 0
KHES 171900Z 02005G10KT 12/02 A3017 RMK A01 T01190019  RH  051%=      5-min Rain = 0
KHES 171905Z 04006KT 12/02 A3017 RMK A01 T01200021  RH  051%=      5-min Rain = 0
KHES 171910Z 04004KT 12/02 A3017 RMK A01 T01170017  RH  051%=      5-min Rain = 0
KHES 171915Z 01007KT 12/02 A3016 RMK A01 T01210018  RH  050%=      5-min Rain = 0
KHES 171920Z 36005KT 12/02 A3016 RMK A01 T01240018  RH  049%=      5-min Rain = 0
KHES 171925Z 02006KT 13/02 A3016 RMK A01 T01270017  RH  048%=      5-min Rain = 0
KHES 171930Z 04006KT 12/02 A3015 RMK A01 T01230015  RH  049%=      5-min Rain = 0
KHES 171935Z 01006KT 13/02 A3015 RMK A01 T01260018  RH  048%=      5-min Rain = 0
KHES 171940Z 32006G11KT 13/02 A3015 RMK A01 T01270015  RH  047%=      5-min Rain = 0
KHES 171945Z 34007KT 13/02 A3014 RMK A01 T01280016  RH  047%=      5-min Rain = 0
KHES 171950Z 01004KT 13/02 A3014 RMK A01 T01270015  RH  047%=      5-min Rain = 0
KHES 171955Z 36005KT 13/02 A3014 RMK A01 T01290015  RH  046%=      5-min Rain = 0
KHES 172000Z 01003G8KT 13/01 A3013 RMK A01 T01300011  RH  045%=      5-min Rain = 0
KHES 172005Z 02005KT 13/01 A3013 RMK A01 T01290013  RH  046%=      5-min Rain = 0
KHES 172010Z 34002KT 13/01 A3013 RMK A01 T01330013  RH  044%=      5-min Rain = 0
KHES 172015Z 05001KT 14/01 A3012 RMK A01 T01350008  RH  042%=      5-min Rain = 0
KHES 172020Z 35004KT 13/01 A3012 RMK A01 T01320009  RH  043%=      5-min Rain = 0
KHES 172025Z 34004KT 13/01 A3012 RMK A01 T01320010  RH  044%=      5-min Rain = 0
KHES 172030Z 28003KT 13/01 A3012 RMK A01 T01340009  RH  043%=      5-min Rain = 0
KHES 172035Z 03004G11KT 14/01 A3012 RMK A01 T01350012  RH  044%=      5-min Rain = 0
KHES 172040Z 36003KT 14/01 A3011 RMK A01 T01360013  RH  044%=      5-min Rain = 0
KHES 172045Z 35003KT 14/01 A3011 RMK A01 T01380011  RH  043%=      5-min Rain = 0
KHES 172050Z 05001KT 14/01 A3011 RMK A01 T01370008  RH  042%=      5-min Rain = 0
KHES 172055Z 05002KT 14/01 A3011 RMK A01 T01360008  RH  042%=      5-min Rain = 0
KHES 172100Z 35002KT 14/01 A3011 RMK A01 T01400010  RH  042%=      5-min Rain = 0
KHES 172105Z 02005KT 14/01 A301 RMK A01 T01380011  RH  042%=      5-min Rain = 0
KHES 172110Z 35003KT 14/01 A301 RMK A01 T01370009  RH  042%=      5-min Rain = 0
KHES 172115Z 03002KT 14/01 A301 RMK A01 T01400010  RH  042%=      5-min Rain = 0
KHES 172120Z 33001KT 14/01 A301 RMK A01 T01430013  RH  042%=      5-min Rain = 0
KHES 172125Z 25002KT 15/02 A301 RMK A01 T01460015  RH  042%=      5-min Rain = 0
KHES 172130Z 25004KT 14/01 A301 RMK A01 T01400007  RH  041%=      5-min Rain = 0
KHES 172135Z 25004KT 14/01 A301 RMK A01 T01390007  RH  041%=      5-min Rain = 0
KHES 172140Z 23003KT 14/01 A301 RMK A01 T01390006  RH  041%=      5-min Rain = 0
KHES 172145Z 28003KT 14/01 A301 RMK A01 T01420006  RH  040%=      5-min Rain = 0
KHES 172150Z 30002KT 14/01 A301 RMK A01 T01410005  RH  040%=      5-min Rain = 0
KHES 172155Z 29002KT 14/00 A301 RMK A01 T01410004  RH  040%=      5-min Rain = 0
KHES 172200Z 26001KT 14/00 A301 RMK A01 T01430001  RH  038%=      5-min Rain = 0
KHES 172205Z 26003KT 14/00 A301 RMK A01 T01440004  RH  039%=      5-min Rain = 0
KHES 172210Z 23002KT 14/00 A301 RMK A01 T01420004  RH  039%=      5-min Rain = 0
KHES 172215Z 21002KT 14/00 A301 RMK A01 T01430003  RH  039%=      5-min Rain = 0
KHES 172220Z 25001KT 14/00 A301 RMK A01 T01440003  RH  039%=      5-min Rain = 0
KHES 172225Z 26003KT 15/01 A301 RMK A01 T01460005  RH  039%=      5-min Rain = 0
KHES 172230Z 28001KT 15/00 A3011 RMK A01 T01450003  RH  038%=      5-min Rain = 0
KHES 172235Z 20001KT 15/00 A3011 RMK A01 T01450003  RH  038%=      5-min Rain = 0
KHES 172240Z 29000KT 15/01 A3011 RMK A01 T01500005  RH  038%=      5-min Rain = 0
KHES 172245Z 28001KT 15/00 A3011 RMK A01 T01530004  RH  036%=      5-min Rain = 0
KHES 172250Z 29002KT 15/01 A3011 RMK A01 T01470005  RH  038%=      5-min Rain = 0
KHES 172255Z 21001KT 14/00 A3011 RMK A01 T01420003  RH  039%=      5-min Rain = 0
KHES 172300Z 25001KT 14/00 A3011 RMK A01 T01410004  RH  040%=      5-min Rain = 0
KHES 172305Z 24003KT 14/01 A301 RMK A01 T01390006  RH  041%=      5-min Rain = 0
KHES 172310Z 24003KT 14/01 A301 RMK A01 T01360007  RH  042%=      5-min Rain = 0
KHES 172315Z 24003KT 13/01 A301 RMK A01 T01340006  RH  042%=      5-min Rain = 0
KHES 172320Z 23002KT 13/00 A301 RMK A01 T01330004  RH  042%=      5-min Rain = 0
KHES 172325Z 20002KT 13/00 A301 RMK A01 T01320003  RH  042%=      5-min Rain = 0
KHES 172330Z 19003KT 13/00 A301 RMK A01 T01260003  RH  043%=      5-min Rain = 0
KHES 172335Z 18004KT 12/00 A301 RMK A01 T01220002  RH  044%=      5-min Rain = 0
KHES 172340Z 18004KT 12/00 A301 RMK A01 T01170002  RH  046%=      5-min Rain = 0
KHES 172345Z 18004KT 11/00 A301 RMK A01 T01110001  RH  047%=      5-min Rain = 0
KHES 172350Z 17004KT 11/00 A301 RMK A01 T01080001  RH  048%=      5-min Rain = 0
KHES 172355Z 17004KT 11/00 A301 RMK A01 T01070002  RH  049%=      5-min Rain = 0
KHES 180000Z 17005KT 10/00 A301 RMK A01 T01010004  RH  052%=      5-min Rain = 0
KHES 180005Z 18005KT 10/01 A301 RMK A01 T00970005  RH  053%=      5-min Rain = 0
KHES 180010Z 18005KT 09/01 A301 RMK A01 T00940006  RH  055%=      5-min Rain = 0
KHES 180015Z 17005KT 09/01 A301 RMK A01 T00910006  RH  056%=      5-min Rain = 0
KHES 180020Z 17005KT 09/01 A301 RMK A01 T00890005  RH  056%=      5-min Rain = 0
KHES 180025Z 17005KT 09/01 A3009 RMK A01 T00890006  RH  057%=      5-min Rain = 0
KHES 180030Z 17003KT 09/01 A301 RMK A01 T00890007  RH  057%=      5-min Rain = 0
KHES 180035Z 17003KT 09/01 A301 RMK A01 T00920007  RH  056%=      5-min Rain = 0
KHES 180040Z 17003KT 09/01 A301 RMK A01 T00920007  RH  056%=      5-min Rain = 0
KHES 180045Z 16003KT 09/01 A301 RMK A01 T00910007  RH  057%=      5-min Rain = 0
KHES 180050Z 16004KT 09/01 A301 RMK A01 T00920008  RH  056%=      5-min Rain = 0
KHES 180055Z 17004KT 09/01 A301 RMK A01 T00900007  RH  057%=      5-min Rain = 0
KHES 180100Z 17004KT 09/01 A301 RMK A01 T00860007  RH  058%=      5-min Rain = 0
KHES 180105Z 16004KT 09/01 A301 RMK A01 T00850006  RH  058%=      5-min Rain = 0
KHES 180110Z 17004KT 09/01 A301 RMK A01 T00870007  RH  058%=      5-min Rain = 0
KHES 180115Z 17005KT 08/01 A301 RMK A01 T00840006  RH  059%=      5-min Rain = 0
KHES 180120Z 17005KT 08/00 A301 RMK A01 T00780004  RH  060%=      5-min Rain = 0
KHES 180125Z 16005KT 07/00 A301 RMK A01 T00730003  RH  062%=      5-min Rain = 0
KHES 180130Z 17004KT 07/00 A301 RMK A01 T00730003  RH  062%=      5-min Rain = 0
KHES 180135Z 16004KT 07/00 A301 RMK A01 T00740003  RH  062%=      5-min Rain = 0
KHES 180140Z 16004KT 08/00 A301 RMK A01 T00760003  RH  061%=      5-min Rain = 0
KHES 180145Z 16004KT 08/00 A301 RMK A01 T00760002  RH  060%=      5-min Rain = 0
KHES 180150Z 17005KT 07/00 A301 RMK A01 T00740002  RH  061%=      5-min Rain = 0
KHES 180155Z 16004KT 07/00 A301 RMK A01 T00730002  RH  061%=      5-min Rain = 0
KHES 180200Z 16004KT 07/00 A3011 RMK A01 T00710002  RH  062%=      5-min Rain = 0
KHES 180205Z 16004KT 07/00 A3011 RMK A01 T00740003  RH  061%=      5-min Rain = 0
KHES 180210Z 17005KT 07/00 A3011 RMK A01 T00720002  RH  062%=      5-min Rain = 0
KHES 180215Z 16004KT 07/00 A3011 RMK A01 T00700003  RH  063%=      5-min Rain = 0
KHES 180220Z 17005KT 07/00 A3011 RMK A01 T00690003  RH  063%=      5-min Rain = 0
KHES 180225Z 17005KT 06/00 A3011 RMK A01 T00630001  RH  065%=      5-min Rain = 0
KHES 180230Z 16004KT 06/00 A3011 RMK A01 T00620002  RH  066%=      5-min Rain = 0
KHES 180235Z 17004KT 06/00 A3011 RMK A01 T00620002  RH  066%=      5-min Rain = 0
KHES 180240Z 18005KT 06/00 A301 RMK A01 T00600001  RH  067%=      5-min Rain = 0
KHES 180245Z 18005KT 05/M00 A301 RMK A01 T00531001  RH  069%=      5-min Rain = 0
KHES 180250Z 18005KT 05/M00 A301 RMK A01 T00491001  RH  071%=      5-min Rain = 0
KHES 180255Z 18005KT 05/M00 A301 RMK A01 T00481001  RH  071%=      5-min Rain = 0
KHES 180300Z 17004KT 05/00 A3011 RMK A01 T00520001  RH  071%=      5-min Rain = 0
KHES 180305Z 18005KT 05/00 A3011 RMK A01 T005300-0  RH  069%=      5-min Rain = 0
KHES 180310Z 19005KT 05/M00 A3011 RMK A01 T00521002  RH  069%=      5-min Rain = 0
KHES 180315Z 19004KT 05/M00 A3011 RMK A01 T00511003  RH  069%=      5-min Rain = 0
KHES 180320Z 18004KT 05/00 A301 RMK A01 T00530000  RH  069%=      5-min Rain = 0
KHES 180325Z 17004KT 06/00 A301 RMK A01 T00550001  RH  069%=      5-min Rain = 0
KHES 180330Z 18005KT 05/M00 A3011 RMK A01 T00511001  RH  069%=      5-min Rain = 0
KHES 180335Z 19005KT 05/M00 A3011 RMK A01 T00471003  RH  071%=      5-min Rain = 0
KHES 180340Z 18005KT 05/M00 A3011 RMK A01 T00451001  RH  073%=      5-min Rain = 0
KHES 180345Z 18005KT 05/M00 A3011 RMK A01 T00451001  RH  072%=      5-min Rain = 0
KHES 180350Z 19004KT 04/M01 A3011 RMK A01 T00431005  RH  072%=      5-min Rain = 0
KHES 180355Z 20004KT 05/00 A301 RMK A01 T004800-0  RH  072%=      5-min Rain = 0
KHES 180400Z 21004KT 05/M00 A301 RMK A01 T00481003  RH  070%=      5-min Rain = 0
KHES 180405Z 22005KT 04/M01 A301 RMK A01 T00401010  RH  070%=      5-min Rain = 0
KHES 180410Z 22004KT 03/M01 A301 RMK A01 T00321014  RH  072%=      5-min Rain = 0
KHES 180415Z 22004KT 03/M01 A301 RMK A01 T00291013  RH  074%=      5-min Rain = 0
KHES 180420Z 22004KT 03/M01 A301 RMK A01 T00291011  RH  076%=      5-min Rain = 0
KHES 180425Z 23004KT 03/M01 A301 RMK A01 T00261011  RH  077%=      5-min Rain = 0
KHES 180430Z 22003KT 03/M01 A301 RMK A01 T00261009  RH  079%=      5-min Rain = 0
KHES 180435Z 21003KT 03/M01 A301 RMK A01 T00281006  RH  079%=      5-min Rain = 0
KHES 180440Z 23004KT 03/M01 A301 RMK A01 T00301006  RH  078%=      5-min Rain = 0
KHES 180445Z 24005KT 02/M01 A301 RMK A01 T00231014  RH  077%=      5-min Rain = 0
KHES 180450Z 23004KT 02/M02 A3009 RMK A01 T00161018  RH  079%=      5-min Rain = 0
KHES 180455Z 23004KT 02/M02 A3009 RMK A01 T00151016  RH  081%=      5-min Rain = 0
KHES 180500Z 24005KT 01/M02 A3009 RMK A01 T00141017  RH  080%=      5-min Rain = 0
KHES 180505Z 24006KT 01/M02 A3009 RMK A01 T00101020  RH  081%=      5-min Rain = 0
KHES 180510Z 23006KT 01/M02 A3008 RMK A01 T00111019  RH  081%=      5-min Rain = 0
KHES 180515Z 23006KT 01/M02 A3008 RMK A01 T00141016  RH  081%=      5-min Rain = 0
KHES 180520Z 23007KT 02/M01 A3008 RMK A01 T00221012  RH  079%=      5-min Rain = 0
KHES 180525Z 24008KT 02/M01 A3008 RMK A01 T00241012  RH  078%=      5-min Rain = 0
KHES 180530Z 23007KT 02/M01 A3007 RMK A01 T00231012  RH  078%=      5-min Rain = 0
KHES 180535Z 23007KT 02/M01 A3007 RMK A01 T00231012  RH  079%=      5-min Rain = 0
KHES 180540Z 23008KT 03/M01 A3007 RMK A01 T00261009  RH  078%=      5-min Rain = 0
KHES 180545Z 23008KT 03/M01 A3007 RMK A01 T00281008  RH  078%=      5-min Rain = 0
KHES 180550Z 23009KT 03/M01 A3006 RMK A01 T00281008  RH  078%=      5-min Rain = 0
KHES 180555Z 22009KT 03/M01 A3006 RMK A01 T00301007  RH  077%=      5-min Rain = 0

Page generated in 0.0091 seconds.